Etusivu
METAR-TAF:

METAR-TAF

Lentoasemat :

Torreón, Meksiko

Leveyspiiri: 25-32N, Pituuspiiri: 103-27W, korkeus merenpinnasta: 1124 m

Tämänhetkinen sää

Tämä raportti tehtiin 1 tunti ja 8 minuuttia sitten, kello 12.41 UTC
tyyntä
Lämpötila 17°C
Kosteus 29%
Ilmanpaine 1018 hPa
Näkyvyys: 16.1 km
selkeää

METAR: MMTC 231241Z 00000KT 10SM SKC 17/M01 A3006

Aika: 07:49 (13:49 UTC)

Sääennuste

Tämä raportti tehtiin 8 tuntia ja 29 minuuttia sitten, kello 05.20 UTC
Ennuste voimassa 23. päivästä klo 06 UTC - 24. päivään klo 06 UTC
Tuuli 5 kn lounaasta
Näkyvyys: 9.7 km
selkeää
usvaa
From 23. päivästä klo 1900 UTC
Tuuli 10 kn lounaasta
Näkyvyys: 10 km
selkeää
From 24. päivästä klo 0300 UTC
Tuuli 8 kn lounaasta
Näkyvyys: 10 km
selkeää

TAF: MMTC 230520Z 2306/2406 22005KT 6SM HZ SKC FM231900 22010KT P6SM SKC FM240300 22008KT P6SM SKC

Säähavainnot ja -ennusteet yli 4000 lentoasemalta (METAR- ja TAF-raportit).

Käytössä olevat sääasemat on merkitty karttaan keltaisilla ja punaisilla pisteillä.

Aseta hiiri pisteen päälle nähdäksesi sääaseman nimen.

Klikkaa sitten nähdäksesi säähavainnot ja -ennusteet.

Kartan vaihtaminen: klikkaa mustalla rastilla varustettuja vihreitä pisteitä, niin voit zoomata sisään; viivalla varustettua vihreää pistettä, niin voit zoomata ulos tai vihreitä nuolia, niin pääset viereisille kartoille.


METAR-TAF: